Archival Weather

Chicago O'Hare International

Chicago, Illinois (KORD)

Report from: Saturday, December 31, 2022 4:51 PM CST
Current time: Monday, March 4, 2024 8:03 PM CST

Current weather – Weather history – Daily summaries
Weather forecast

Temperature2.8°C (37.0°F)
Wind chill0.7°C (33.3°F)
Dew point-2.8°C (27.0°F)
Winds 4 kts (2.1 m/s, 4.6 mph) Southeast (140°)
Visibility10 mi. (16.1 km)
Clouds Ceiling: Broken clouds 9,000 ft. (2,743 m)
Broken clouds 12,000 ft. (3,658 m)
Broken clouds 20,000 ft. (6,096 m)
Altimeter29.87 in.Hg (1012 mB)
Relative humidity67 %
Density altitude-1,368 ft. (-417 m)
Sea-level pressure101.2 kPa (1012 mB, 29.89 in.Hg)
Remarks Automated weather observing station with precipitation discriminator
Flight conditions Visual Meteorological Conditions
Raw dataKORD 312251Z 14004KT 10SM BKN090 BKN120 BKN200 03/M03 A2987 RMK AO2 SLP122 T00281028
An error has occurred. This application may no longer respond until reloaded. Reload 🗙